sensor_id;sensor_type;location;lat;lon;timestamp;pressure;altitude;pressure_sealevel;temperature;humidity
11440;BME280;5776;51.814;4.510;2022-12-29T00:02:03;99939.69;;;9.16;100.00
11440;BME280;5776;51.814;4.510;2022-12-29T00:04:29;99939.69;;;9.16;100.00
11440;BME280;5776;51.814;4.510;2022-12-29T00:06:55;99931.84;;;9.14;100.00
11440;BME280;5776;51.814;4.510;2022-12-29T00:09:20;99928.84;;;9.16;100.00
11440;BME280;5776;51.814;4.510;2022-12-29T00:11:46;99915.59;;;9.14;100.00
11440;BME280;5776;51.814;4.510;2022-12-29T00:14:12;99907.97;;;9.16;100.00
11440;BME280;5776;51.814;4.510;2022-12-29T00:16:57;99902.56;;;9.16;100.00
11440;BME280;5776;51.814;4.510;2022-12-29T00:19:23;99890.94;;;9.16;100.00
11440;BME280;5776;51.814;4.510;2022-12-29T00:22:10;99898.72;;;9.17;100.00
11440;BME280;5776;51.814;4.510;2022-12-29T00:24:55;99894.44;;;9.16;100.00
11440;BME280;5776;51.814;4.510;2022-12-29T00:27:40;99893.31;;;9.17;100.00
11440;BME280;5776;51.814;4.510;2022-12-29T00:30:24;99884.09;;;9.18;100.00
11440;BME280;5776;51.814;4.510;2022-12-29T00:36:04;99894.94;;;9.18;100.00
11440;BME280;5776;51.814;4.510;2022-12-29T00:38:32;99874.84;;;9.19;100.00
11440;BME280;5776;51.814;4.510;2022-12-29T00:41:19;99886.81;;;9.18;100.00
11440;BME280;5776;51.814;4.510;2022-12-29T00:44:03;99880.00;;;9.21;100.00
11440;BME280;5776;51.814;4.510;2022-12-29T00:46:33;99893.81;;;9.19;100.00
11440;BME280;5776;51.814;4.510;2022-12-29T00:49:00;99888.91;;;9.21;100.00
11440;BME280;5776;51.814;4.510;2022-12-29T00:51:45;99882.69;;;9.21;100.00
11440;BME280;5776;51.814;4.510;2022-12-29T00:54:12;99875.66;;;9.20;100.00
11440;BME280;5776;51.814;4.510;2022-12-29T00:56:38;99868.31;;;9.20;100.00
11440;BME280;5776;51.814;4.510;2022-12-29T00:59:06;99866.72;;;9.19;100.00
11440;BME280;5776;51.814;4.510;2022-12-29T01:01:32;99874.84;;;9.19;100.00
11440;BME280;5776;51.814;4.510;2022-12-29T01:03:58;99868.66;;;9.19;100.00
11440;BME280;5776;51.814;4.510;2022-12-29T01:06:24;99873.28;;;9.18;100.00
11440;BME280;5776;51.814;4.510;2022-12-29T01:08:51;99874.56;;;9.21;100.00
11440;BME280;5776;51.814;4.510;2022-12-29T01:11:38;99867.25;;;9.21;100.00
11440;BME280;5776;51.814;4.510;2022-12-29T01:14:04;99871.53;;;9.22;100.00
11440;BME280;5776;51.814;4.510;2022-12-29T01:16:30;99867.25;;;9.21;100.00
11440;BME280;5776;51.814;4.510;2022-12-29T01:18:57;99860.72;;;9.22;100.00
11440;BME280;5776;51.814;4.510;2022-12-29T01:21:23;99865.03;;;9.23;100.00
11440;BME280;5776;51.814;4.510;2022-12-29T01:23:48;99865.84;;;9.24;100.00
11440;BME280;5776;51.814;4.510;2022-12-29T01:26:15;99879.09;;;9.25;100.00
11440;BME280;5776;51.814;4.510;2022-12-29T01:28:42;99866.63;;;9.24;100.00
11440;BME280;5776;51.814;4.510;2022-12-29T01:31:09;99870.13;;;9.25;100.00
11440;BME280;5776;51.814;4.510;2022-12-29T01:33:35;99880.97;;;9.25;100.00
11440;BME280;5776;51.814;4.510;2022-12-29T01:36:03;99872.03;;;9.24;100.00
11440;BME280;5776;51.814;4.510;2022-12-29T01:38:30;99863.91;;;9.24;100.00
11440;BME280;5776;51.814;4.510;2022-12-29T01:40:56;99857.41;;;9.25;100.00
11440;BME280;5776;51.814;4.510;2022-12-29T01:43:38;99852.78;;;9.26;100.00
11440;BME280;5776;51.814;4.510;2022-12-29T01:46:09;99859.00;;;9.26;100.00
11440;BME280;5776;51.814;4.510;2022-12-29T01:48:39;99863.91;;;9.24;100.00
11440;BME280;5776;51.814;4.510;2022-12-29T01:51:06;99864.72;;;9.25;100.00
11440;BME280;5776;51.814;4.510;2022-12-29T01:53:33;99857.41;;;9.25;100.00
11440;BME280;5776;51.814;4.510;2022-12-29T01:56:04;99854.69;;;9.25;100.00
11440;BME280;5776;51.814;4.510;2022-12-29T01:58:35;99878.25;;;9.25;100.00
11440;BME280;5776;51.814;4.510;2022-12-29T02:01:03;99879.88;;;9.26;100.00
11440;BME280;5776;51.814;4.510;2022-12-29T02:03:30;99870.97;;;9.25;100.00
11440;BME280;5776;51.814;4.510;2022-12-29T02:06:07;99874.47;;;9.26;100.00
11440;BME280;5776;51.814;4.510;2022-12-29T02:08:36;99873.66;;;9.25;100.00
11440;BME280;5776;51.814;4.510;2022-12-29T02:11:03;99861.41;;;9.28;100.00
11440;BME280;5776;51.814;4.510;2022-12-29T02:13:29;99871.44;;;9.27;100.00
11440;BME280;5776;51.814;4.510;2022-12-29T02:18:33;99864.13;;;9.28;100.00
11440;BME280;5776;51.814;4.510;2022-12-29T02:21:06;99864.94;;;9.28;100.00
11440;BME280;5776;51.814;4.510;2022-12-29T02:35:25;99877.47;;;9.24;100.00
11440;BME280;5776;51.814;4.510;2022-12-29T02:40:43;99885.59;;;9.24;100.00
11440;BME280;5776;51.814;4.510;2022-12-29T02:43:36;99885.59;;;9.24;100.00
11440;BME280;5776;51.814;4.510;2022-12-29T02:48:45;99887.50;;;9.24;100.00
11440;BME280;5776;51.814;4.510;2022-12-29T02:54:19;99878.25;;;9.25;100.00
11440;BME280;5776;51.814;4.510;2022-12-29T02:57:26;99875.88;;;9.23;100.00
11440;BME280;5776;51.814;4.510;2022-12-29T03:00:00;99875.88;;;9.23;100.00
11440;BME280;5776;51.814;4.510;2022-12-29T03:08:11;99865.03;;;9.23;100.00
11440;BME280;5776;51.814;4.510;2022-12-29T03:13:25;99865.03;;;9.23;100.00
11440;BME280;5776;51.814;4.510;2022-12-29T03:16:20;99850.66;;;9.23;100.00
11440;BME280;5776;51.814;4.510;2022-12-29T03:21:38;99863.72;;;9.21;100.00
11440;BME280;5776;51.814;4.510;2022-12-29T03:24:30;99866.13;;;9.22;100.00
11440;BME280;5776;51.814;4.510;2022-12-29T03:26:59;99880.47;;;9.23;100.00
11440;BME280;5776;51.814;4.510;2022-12-29T03:29:29;99871.53;;;9.22;100.00
11440;BME280;5776;51.814;4.510;2022-12-29T03:31:58;99868.84;;;9.22;100.00
11440;BME280;5776;51.814;4.510;2022-12-29T03:34:25;99869.94;;;9.21;100.00
11440;BME280;5776;51.814;4.510;2022-12-29T03:36:58;99876.16;;;9.22;100.00
11440;BME280;5776;51.814;4.510;2022-12-29T03:39:26;99873.44;;;9.22;100.00
11440;BME280;5776;51.814;4.510;2022-12-29T03:41:58;99884.28;;;9.22;100.00
11440;BME280;5776;51.814;4.510;2022-12-29T03:44:41;99878.88;;;9.22;100.00
11440;BME280;5776;51.814;4.510;2022-12-29T03:47:10;99885.09;;;9.22;100.00
11440;BME280;5776;51.814;4.510;2022-12-29T03:49:37;99879.66;;;9.22;100.00
11440;BME280;5776;51.814;4.510;2022-12-29T03:52:03;99886.19;;;9.21;100.00
11440;BME280;5776;51.814;4.510;2022-12-29T03:54:29;99885.88;;;9.23;100.00
11440;BME280;5776;51.814;4.510;2022-12-29T03:56:55;99881.28;;;9.23;100.00
11440;BME280;5776;51.814;4.510;2022-12-29T03:59:21;99891.00;;;9.24;100.00
11440;BME280;5776;51.814;4.510;2022-12-29T04:01:47;99889.41;;;9.23;100.00
11440;BME280;5776;51.814;4.510;2022-12-29T04:04:13;99892.13;;;9.23;100.00
11440;BME280;5776;51.814;4.510;2022-12-29T04:06:40;99900.75;;;9.25;100.00
11440;BME280;5776;51.814;4.510;2022-12-29T04:09:06;99895.63;;;9.24;100.00
11440;BME280;5776;51.814;4.510;2022-12-29T04:11:32;99898.94;;;9.21;100.00
11440;BME280;5776;51.814;4.510;2022-12-29T04:13:58;99901.16;;;9.19;100.00
11440;BME280;5776;51.814;4.510;2022-12-29T04:16:24;99903.34;;;9.17;100.00
11440;BME280;5776;51.814;4.510;2022-12-29T04:18:50;99896.63;;;9.14;100.00
11440;BME280;5776;51.814;4.510;2022-12-29T04:21:16;99888.00;;;9.12;100.00
11440;BME280;5776;51.814;4.510;2022-12-29T04:23:42;99889.13;;;9.11;100.00
11440;BME280;5776;51.814;4.510;2022-12-29T04:26:08;99893.13;;;9.14;100.00
11440;BME280;5776;51.814;4.510;2022-12-29T04:28:35;99885.00;;;9.14;100.00
11440;BME280;5776;51.814;4.510;2022-12-29T04:31:03;99889.31;;;9.15;100.00
11440;BME280;5776;51.814;4.510;2022-12-29T04:33:29;99884.41;;;9.17;100.00
11440;BME280;5776;51.814;4.510;2022-12-29T04:35:55;99884.69;;;9.15;100.00
11440;BME280;5776;51.814;4.510;2022-12-29T04:38:22;99894.44;;;9.16;100.00
11440;BME280;5776;51.814;4.510;2022-12-29T04:40:49;99889.00;;;9.16;100.00
11440;BME280;5776;51.814;4.510;2022-12-29T04:43:16;99888.22;;;9.16;100.00
11440;BME280;5776;51.814;4.510;2022-12-29T04:45:45;99892.00;;;9.15;100.00
11440;BME280;5776;51.814;4.510;2022-12-29T04:48:12;99886.31;;;9.16;100.00
11440;BME280;5776;51.814;4.510;2022-12-29T04:50:38;99888.50;;;9.14;100.00
11440;BME280;5776;51.814;4.510;2022-12-29T04:53:05;99883.88;;;9.15;100.00
11440;BME280;5776;51.814;4.510;2022-12-29T04:55:31;99886.59;;;9.15;100.00
11440;BME280;5776;51.814;4.510;2022-12-29T04:57:57;99888.50;;;9.14;100.00
11440;BME280;5776;51.814;4.510;2022-12-29T05:00:23;99888.50;;;9.14;100.00
11440;BME280;5776;51.814;4.510;2022-12-29T05:02:49;99898.56;;;9.14;100.00
11440;BME280;5776;51.814;4.510;2022-12-29T05:05:15;99881.50;;;9.13;100.00
11440;BME280;5776;51.814;4.510;2022-12-29T05:07:41;99884.50;;;9.12;100.00
11440;BME280;5776;51.814;4.510;2022-12-29T05:10:07;99890.72;;;9.12;100.00
11440;BME280;5776;51.814;4.510;2022-12-29T05:12:35;99888.78;;;9.13;100.00
11440;BME280;5776;51.814;4.510;2022-12-29T05:15:04;99898.03;;;9.12;100.00
11440;BME280;5776;51.814;4.510;2022-12-29T05:17:30;99904.25;;;9.12;100.00
11440;BME280;5776;51.814;4.510;2022-12-29T05:19:56;99908.06;;;9.11;100.00
11440;BME280;5776;51.814;4.510;2022-12-29T05:22:22;99896.13;;;9.12;100.00
11440;BME280;5776;51.814;4.510;2022-12-29T05:24:48;99899.63;;;9.13;100.00
11440;BME280;5776;51.814;4.510;2022-12-29T05:27:14;99904.25;;;9.12;100.00
11440;BME280;5776;51.814;4.510;2022-12-29T05:29:40;99904.25;;;9.12;100.00
11440;BME280;5776;51.814;4.510;2022-12-29T05:32:05;99916.72;;;9.13;100.00
11440;BME280;5776;51.814;4.510;2022-12-29T05:34:32;99914.00;;;9.13;100.00
11440;BME280;5776;51.814;4.510;2022-12-29T05:36:57;99906.16;;;9.12;100.00
11440;BME280;5776;51.814;4.510;2022-12-29T05:39:23;99910.78;;;9.11;100.00
11440;BME280;5776;51.814;4.510;2022-12-29T05:41:49;99909.66;;;9.12;100.00
11440;BME280;5776;51.814;4.510;2022-12-29T05:44:15;99907.75;;;9.13;100.00
11440;BME280;5776;51.814;4.510;2022-12-29T05:46:41;99918.59;;;9.13;100.00
11440;BME280;5776;51.814;4.510;2022-12-29T05:49:07;99912.38;;;9.12;100.00
11440;BME280;5776;51.814;4.510;2022-12-29T05:51:33;99911.59;;;9.12;100.00
11440;BME280;5776;51.814;4.510;2022-12-29T05:53:59;99908.88;;;9.12;100.00
11440;BME280;5776;51.814;4.510;2022-12-29T05:56:24;99928.63;;;9.12;100.00
11440;BME280;5776;51.814;4.510;2022-12-29T05:58:50;99939.78;;;9.11;100.00
11440;BME280;5776;51.814;4.510;2022-12-29T06:01:16;99928.63;;;9.12;100.00
11440;BME280;5776;51.814;4.510;2022-12-29T06:03:42;99938.38;;;9.13;100.00
11440;BME280;5776;51.814;4.510;2022-12-29T06:06:08;99939.47;;;9.12;100.00
11440;BME280;5776;51.814;4.510;2022-12-29T06:08:34;99941.09;;;9.13;100.00
11440;BME280;5776;51.814;4.510;2022-12-29T06:11:00;99954.63;;;9.13;100.00
11440;BME280;5776;51.814;4.510;2022-12-29T06:13:26;99952.72;;;9.14;100.00
11440;BME280;5776;51.814;4.510;2022-12-29T06:15:53;99939.47;;;9.12;100.00
11440;BME280;5776;51.814;4.510;2022-12-29T06:18:19;99950.31;;;9.12;100.00
11440;BME280;5776;51.814;4.510;2022-12-29T06:20:44;99948.19;;;9.09;100.00
11440;BME280;5776;51.814;4.510;2022-12-29T06:23:10;99940.06;;;9.09;100.00
11440;BME280;5776;51.814;4.510;2022-12-29T06:25:39;99953.91;;;9.07;100.00
11440;BME280;5776;51.814;4.510;2022-12-29T06:28:05;99978.09;;;9.04;100.00
11440;BME280;5776;51.814;4.510;2022-12-29T06:30:31;99978.69;;;9.01;100.00
11440;BME280;5776;51.814;4.510;2022-12-29T06:32:58;99970.84;;;8.99;100.00
11440;BME280;5776;51.814;4.510;2022-12-29T06:35:24;99970.56;;;9.01;100.00
11440;BME280;5776;51.814;4.510;2022-12-29T06:37:51;99966.25;;;9.00;100.00
11440;BME280;5776;51.814;4.510;2022-12-29T06:40:17;99964.66;;;8.99;100.00
11440;BME280;5776;51.814;4.510;2022-12-29T06:42:43;99968.44;;;8.98;100.00
11440;BME280;5776;51.814;4.510;2022-12-29T06:45:09;99965.25;;;8.96;100.00
11440;BME280;5776;51.814;4.510;2022-12-29T06:47:35;99952.78;;;8.95;100.00
11440;BME280;5776;51.814;4.510;2022-12-29T06:50:02;99957.41;;;8.94;100.00
11440;BME280;5776;51.814;4.510;2022-12-29T06:52:28;99971.22;;;8.93;100.00
11440;BME280;5776;51.814;4.510;2022-12-29T06:54:54;99963.44;;;8.91;100.00
11440;BME280;5776;51.814;4.510;2022-12-29T06:57:21;99977.75;;;8.92;100.00
11440;BME280;5776;51.814;4.510;2022-12-29T06:59:47;99977.75;;;8.92;100.00
11440;BME280;5776;51.814;4.510;2022-12-29T07:02:13;99968.84;;;8.91;100.00
11440;BME280;5776;51.814;4.510;2022-12-29T07:04:44;99977.25;;;8.90;100.00
11440;BME280;5776;51.814;4.510;2022-12-29T07:07:10;99970.75;;;8.91;100.00
11440;BME280;5776;51.814;4.510;2022-12-29T07:09:36;99976.16;;;8.91;100.00
11440;BME280;5776;51.814;4.510;2022-12-29T07:12:02;99971.84;;;8.90;100.00
11440;BME280;5776;51.814;4.510;2022-12-29T07:14:28;99967.53;;;8.89;100.00
11440;BME280;5776;51.814;4.510;2022-12-29T07:16:54;99972.63;;;8.90;100.00
11440;BME280;5776;51.814;4.510;2022-12-29T07:19:19;99969.13;;;8.90;100.00
11440;BME280;5776;51.814;4.510;2022-12-29T07:21:45;99970.25;;;8.89;100.00
11440;BME280;5776;51.814;4.510;2022-12-29T07:24:11;99969.63;;;8.92;100.00
11440;BME280;5776;51.814;4.510;2022-12-29T07:26:37;99982.38;;;8.91;100.00
11440;BME280;5776;51.814;4.510;2022-12-29T07:29:04;99978.38;;;8.89;100.00
11440;BME280;5776;51.814;4.510;2022-12-29T07:31:30;99971.03;;;8.89;100.00
11440;BME280;5776;51.814;4.510;2022-12-29T07:33:55;99968.03;;;8.91;100.00
11440;BME280;5776;51.814;4.510;2022-12-29T07:36:21;99969.44;;;8.88;100.00
11440;BME280;5776;51.814;4.510;2022-12-29T07:38:47;99969.13;;;8.90;100.00
11440;BME280;5776;51.814;4.510;2022-12-29T07:41:13;99973.75;;;8.89;100.00
11440;BME280;5776;51.814;4.510;2022-12-29T07:43:39;99967.53;;;8.89;100.00
11440;BME280;5776;51.814;4.510;2022-12-29T07:46:05;99963.72;;;8.90;100.00
11440;BME280;5776;51.814;4.510;2022-12-29T07:48:31;99975.84;;;8.92;100.00
11440;BME280;5776;51.814;4.510;2022-12-29T07:50:58;99981.28;;;8.92;100.00
11440;BME280;5776;51.814;4.510;2022-12-29T07:53:24;99985.09;;;8.91;100.00
11440;BME280;5776;51.814;4.510;2022-12-29T07:55:49;99985.38;;;8.90;100.00
11440;BME280;5776;51.814;4.510;2022-12-29T07:58:15;99990.00;;;8.89;100.00
11440;BME280;5776;51.814;4.510;2022-12-29T08:00:41;99983.78;;;8.89;100.00
11440;BME280;5776;51.814;4.510;2022-12-29T08:03:07;99989.72;;;8.91;100.00
11440;BME280;5776;51.814;4.510;2022-12-29T08:05:33;99992.41;;;8.91;100.00
11440;BME280;5776;51.814;4.510;2022-12-29T08:08:00;100007.84;;;8.90;100.00
11440;BME280;5776;51.814;4.510;2022-12-29T08:10:26;99992.41;;;8.91;100.00
11440;BME280;5776;51.814;4.510;2022-12-29T08:12:51;99996.22;;;8.90;100.00
11440;BME280;5776;51.814;4.510;2022-12-29T08:15:17;99985.38;;;8.90;100.00
11440;BME280;5776;51.814;4.510;2022-12-29T08:17:43;99990.78;;;8.90;100.00
11440;BME280;5776;51.814;4.510;2022-12-29T08:20:10;100004.34;;;8.90;100.00
11440;BME280;5776;51.814;4.510;2022-12-29T08:22:36;100011.66;;;8.89;100.00
11440;BME280;5776;51.814;4.510;2022-12-29T08:25:02;100007.03;;;8.90;100.00
11440;BME280;5776;51.814;4.510;2022-12-29T08:27:28;100007.84;;;8.90;100.00
11440;BME280;5776;51.814;4.510;2022-12-29T08:29:54;100013.56;;;8.89;100.00
11440;BME280;5776;51.814;4.510;2022-12-29T08:32:20;100018.19;;;8.88;100.00
11440;BME280;5776;51.814;4.510;2022-12-29T08:34:46;100023.28;;;8.90;100.00
11440;BME280;5776;51.814;4.510;2022-12-29T08:37:12;100013.84;;;8.87;100.00
11440;BME280;5776;51.814;4.510;2022-12-29T08:39:38;100026.31;;;8.88;100.00
11440;BME280;5776;51.814;4.510;2022-12-29T08:42:04;100027.41;;;8.87;100.00
11440;BME280;5776;51.814;4.510;2022-12-29T08:44:30;100021.69;;;8.89;100.00
11440;BME280;5776;51.814;4.510;2022-12-29T08:46:56;100040.66;;;8.89;100.00
11440;BME280;5776;51.814;4.510;2022-12-29T08:49:22;100052.56;;;8.87;100.00
11440;BME280;5776;51.814;4.510;2022-12-29T08:51:48;100053.38;;;8.88;100.00
11440;BME280;5776;51.814;4.510;2022-12-29T08:54:14;100078.03;;;8.86;100.00
11440;BME280;5776;51.814;4.510;2022-12-29T08:56:39;100071.03;;;8.85;100.00
11440;BME280;5776;51.814;4.510;2022-12-29T08:59:05;100082.94;;;8.84;100.00
11440;BME280;5776;51.814;4.510;2022-12-29T09:01:31;100077.84;;;8.83;100.00
11440;BME280;5776;51.814;4.510;2022-12-29T09:03:59;100088.34;;;8.84;100.00
11440;BME280;5776;51.814;4.510;2022-12-29T09:06:25;100083.25;;;8.83;100.00
11440;BME280;5776;51.814;4.510;2022-12-29T09:08:53;100086.25;;;8.81;100.00
11440;BME280;5776;51.814;4.510;2022-12-29T09:11:24;100082.75;;;8.81;100.00
11440;BME280;5776;51.814;4.510;2022-12-29T09:13:51;100088.88;;;8.86;100.00
11440;BME280;5776;51.814;4.510;2022-12-29T09:16:18;100080.25;;;8.84;100.00
11440;BME280;5776;51.814;4.510;2022-12-29T09:18:44;100104.91;;;8.83;100.00
11440;BME280;5776;51.814;4.510;2022-12-29T09:21:11;100119.25;;;8.83;100.00
11440;BME280;5776;51.814;4.510;2022-12-29T09:23:37;100116.84;;;8.82;100.00
11440;BME280;5776;51.814;4.510;2022-12-29T09:26:04;100107.91;;;8.81;100.00
11440;BME280;5776;51.814;4.510;2022-12-29T09:28:30;100119.84;;;8.80;100.00
11440;BME280;5776;51.814;4.510;2022-12-29T09:30:57;100118.75;;;8.81;100.00
11440;BME280;5776;51.814;4.510;2022-12-29T09:33:24;100128.47;;;8.82;100.00
11440;BME280;5776;51.814;4.510;2022-12-29T09:35:52;100129.28;;;8.83;100.00
11440;BME280;5776;51.814;4.510;2022-12-29T09:38:20;100137.63;;;8.86;100.00
11440;BME280;5776;51.814;4.510;2022-12-29T09:40:50;100143.25;;;8.90;100.00
11440;BME280;5776;51.814;4.510;2022-12-29T09:46:23;100143.56;;;8.89;100.00
11440;BME280;5776;51.814;4.510;2022-12-29T09:51:47;100148.44;;;8.86;100.00
11440;BME280;5776;51.814;4.510;2022-12-29T09:56:50;100162.78;;;8.87;100.00
11440;BME280;5776;51.814;4.510;2022-12-29T09:59:20;100168.72;;;8.89;100.00
11440;BME280;5776;51.814;4.510;2022-12-29T10:02:00;100183.06;;;8.90;100.00
11440;BME280;5776;51.814;4.510;2022-12-29T10:04:29;100176.56;;;8.91;100.00
11440;BME280;5776;51.814;4.510;2022-12-29T10:07:01;100190.66;;;8.87;100.00
11440;BME280;5776;51.814;4.510;2022-12-29T10:09:53;100196.41;;;8.86;100.00
11440;BME280;5776;51.814;4.510;2022-12-29T10:15:20;100216.09;;;8.92;100.00
11440;BME280;5776;51.814;4.510;2022-12-29T10:23:35;100215.50;;;8.95;100.00
11440;BME280;5776;51.814;4.510;2022-12-29T10:26:14;100213.59;;;8.95;100.00
11440;BME280;5776;51.814;4.510;2022-12-29T10:31:23;100238.78;;;8.96;100.00
11440;BME280;5776;51.814;4.510;2022-12-29T10:33:53;100233.38;;;8.96;100.00
11440;BME280;5776;51.814;4.510;2022-12-29T10:36:34;100249.03;;;8.99;100.00
11440;BME280;5776;51.814;4.510;2022-12-29T10:39:32;100236.81;;;9.01;100.00
11440;BME280;5776;51.814;4.510;2022-12-29T10:42:23;100227.81;;;9.06;100.00
11440;BME280;5776;51.814;4.510;2022-12-29T10:44:51;100237.25;;;9.08;100.00
11440;BME280;5776;51.814;4.510;2022-12-29T10:47:20;100238.06;;;9.09;100.00
11440;BME280;5776;51.814;4.510;2022-12-29T10:49:48;100244.00;;;9.11;100.00
11440;BME280;5776;51.814;4.510;2022-12-29T10:52:16;100247.50;;;9.12;100.00
11440;BME280;5776;51.814;4.510;2022-12-29T10:55:04;100255.34;;;9.13;100.00
11440;BME280;5776;51.814;4.510;2022-12-29T10:57:42;100264.78;;;9.16;100.00
11440;BME280;5776;51.814;4.510;2022-12-29T11:00:16;100273.19;;;9.14;100.00
11440;BME280;5776;51.814;4.510;2022-12-29T11:08:04;100284.25;;;9.18;100.00
11440;BME280;5776;51.814;4.510;2022-12-29T11:10:35;100291.56;;;9.17;100.00
11440;BME280;5776;51.814;4.510;2022-12-29T11:15:48;100306.50;;;9.15;100.00
11440;BME280;5776;51.814;4.510;2022-12-29T11:20:56;100314.88;;;9.18;100.00
11440;BME280;5776;51.814;4.510;2022-12-29T11:28:37;100322.19;;;9.18;100.00
11440;BME280;5776;51.814;4.510;2022-12-29T11:31:05;100326.00;;;9.17;100.00
11440;BME280;5776;51.814;4.510;2022-12-29T11:33:34;100326.78;;;9.17;100.00
11440;BME280;5776;51.814;4.510;2022-12-29T11:36:07;100336.03;;;9.16;100.00
11440;BME280;5776;51.814;4.510;2022-12-29T11:38:36;100329.81;;;9.16;100.00
11440;BME280;5776;51.814;4.510;2022-12-29T11:41:03;100335.22;;;9.16;100.00
11440;BME280;5776;51.814;4.510;2022-12-29T11:43:33;100334.94;;;9.17;100.00
11440;BME280;5776;51.814;4.510;2022-12-29T11:46:01;100340.34;;;9.17;100.00
11440;BME280;5776;51.814;4.510;2022-12-29T11:48:40;100334.13;;;9.17;100.00
11440;BME280;5776;51.814;4.510;2022-12-29T11:51:07;100339.25;;;9.18;100.00
11440;BME280;5776;51.814;4.510;2022-12-29T11:53:43;100341.97;;;9.18;100.00
11440;BME280;5776;51.814;4.510;2022-12-29T11:56:15;100346.56;;;9.18;100.00
11440;BME280;5776;51.814;4.510;2022-12-29T11:58:41;100346.56;;;9.18;100.00
11440;BME280;5776;51.814;4.510;2022-12-29T12:01:18;100340.88;;;9.19;100.00
11440;BME280;5776;51.814;4.510;2022-12-29T12:04:12;100343.84;;;9.18;100.00
11440;BME280;5776;51.814;4.510;2022-12-29T12:06:48;100349.00;;;9.19;100.00
11440;BME280;5776;51.814;4.510;2022-12-29T12:10:10;100343.84;;;9.18;100.00
11440;BME280;5776;51.814;4.510;2022-12-29T12:12:11;100340.34;;;9.17;100.00
11440;BME280;5776;51.814;4.510;2022-12-29T12:14:56;100347.41;;;9.18;100.00
11440;BME280;5776;51.814;4.510;2022-12-29T12:17:33;100339.53;;;9.17;100.00
11440;BME280;5776;51.814;4.510;2022-12-29T12:20:18;100342.03;;;9.13;100.00
11440;BME280;5776;51.814;4.510;2022-12-29T12:25:37;100345.47;;;9.19;100.00
11440;BME280;5776;51.814;4.510;2022-12-29T12:30:43;100356.53;;;9.22;100.00
11440;BME280;5776;51.814;4.510;2022-12-29T12:33:35;100357.34;;;9.23;100.00
11440;BME280;5776;51.814;4.510;2022-12-29T12:41:35;100380.38;;;9.25;100.00
11440;BME280;5776;51.814;4.510;2022-12-29T12:49:35;100382.75;;;9.27;100.00
11440;BME280;5776;51.814;4.510;2022-12-29T12:52:42;100380.84;;;9.27;100.00
11440;BME280;5776;51.814;4.510;2022-12-29T13:03:41;100373.03;;;9.26;100.00
11440;BME280;5776;51.814;4.510;2022-12-29T13:06:22;100365.72;;;9.26;100.00
11440;BME280;5776;51.814;4.510;2022-12-29T13:09:19;100377.66;;;9.25;100.00
11440;BME280;5776;51.814;4.510;2022-12-29T13:11:55;100383.88;;;9.26;100.00
11440;BME280;5776;51.814;4.510;2022-12-29T13:19:57;100380.84;;;9.27;100.00
11440;BME280;5776;51.814;4.510;2022-12-29T13:22:41;100386.00;;;9.29;100.00
11440;BME280;5776;51.814;4.510;2022-12-29T13:28:03;100407.41;;;9.30;100.00
11440;BME280;5776;51.814;4.510;2022-12-29T13:30:43;100403.59;;;9.32;100.00
11440;BME280;5776;51.814;4.510;2022-12-29T13:36:20;100398.25;;;9.45;100.00
11440;BME280;5776;51.814;4.510;2022-12-29T13:39:19;100396.44;;;9.41;100.00
11440;BME280;5776;51.814;4.510;2022-12-29T13:41:55;100398.63;;;9.39;100.00
11440;BME280;5776;51.814;4.510;2022-12-29T13:44:28;100397.22;;;9.41;100.00
11440;BME280;5776;51.814;4.510;2022-12-29T13:46:58;100409.41;;;9.44;100.00
11440;BME280;5776;51.814;4.510;2022-12-29T13:49:27;100401.78;;;9.46;100.00
11440;BME280;5776;51.814;4.510;2022-12-29T13:51:56;100404.03;;;9.39;100.00
11440;BME280;5776;51.814;4.510;2022-12-29T13:57:15;100396.84;;;9.29;100.00
11440;BME280;5776;51.814;4.510;2022-12-29T13:59:54;100398.97;;;9.32;100.00
11440;BME280;5776;51.814;4.510;2022-12-29T14:02:42;100400.06;;;9.31;100.00
11440;BME280;5776;51.814;4.510;2022-12-29T14:07:46;100403.78;;;9.35;100.00
11440;BME280;5776;51.814;4.510;2022-12-29T14:10:36;100402.78;;;9.31;100.00
11440;BME280;5776;51.814;4.510;2022-12-29T14:13:16;100407.63;;;9.34;100.00
11440;BME280;5776;51.814;4.510;2022-12-29T14:15:44;100403.06;;;9.29;100.00
11440;BME280;5776;51.814;4.510;2022-12-29T14:18:12;100414.53;;;9.21;100.00
11440;BME280;5776;51.814;4.510;2022-12-29T14:20:53;100411.31;;;9.19;100.00
11440;BME280;5776;51.814;4.510;2022-12-29T14:23:39;100409.81;;;9.32;100.00
11440;BME280;5776;51.814;4.510;2022-12-29T14:31:01;100412.56;;;9.51;100.00
11440;BME280;5776;51.814;4.510;2022-12-29T14:33:32;100421.78;;;9.50;100.00
11440;BME280;5776;51.814;4.510;2022-12-29T14:37:22;100421.78;;;9.50;100.00
11440;BME280;5776;51.814;4.510;2022-12-29T14:39:35;100420.16;;;9.49;100.00
11440;BME280;5776;51.814;4.510;2022-12-29T14:42:06;100426.91;;;9.51;100.00
11440;BME280;5776;51.814;4.510;2022-12-29T14:44:52;100419.59;;;9.52;100.00
11440;BME280;5776;51.814;4.510;2022-12-29T14:47:33;100416.88;;;9.52;100.00
11440;BME280;5776;51.814;4.510;2022-12-29T14:50:07;100416.59;;;9.54;100.00
11440;BME280;5776;51.814;4.510;2022-12-29T14:55:47;100419.59;;;9.52;100.00
11440;BME280;5776;51.814;4.510;2022-12-29T15:04:03;100433.66;;;9.54;100.00
11440;BME280;5776;51.814;4.510;2022-12-29T15:06:31;100433.66;;;9.54;100.00
11440;BME280;5776;51.814;4.510;2022-12-29T15:14:01;100452.34;;;9.56;100.00
11440;BME280;5776;51.814;4.510;2022-12-29T15:16:30;100443.41;;;9.55;100.00
11440;BME280;5776;51.814;4.510;2022-12-29T15:18:57;100459.66;;;9.55;100.00
11440;BME280;5776;51.814;4.510;2022-12-29T15:21:26;100471.03;;;9.57;100.00
11440;BME280;5776;51.814;4.510;2022-12-29T15:23:53;100458.06;;;9.54;100.00
11440;BME280;5776;51.814;4.510;2022-12-29T15:26:20;100464.81;;;9.57;100.00
11440;BME280;5776;51.814;4.510;2022-12-29T15:28:52;100470.22;;;9.57;100.00
11440;BME280;5776;51.814;4.510;2022-12-29T15:31:22;100468.31;;;9.57;100.00
11440;BME280;5776;51.814;4.510;2022-12-29T15:34:01;100473.75;;;9.57;100.00
11440;BME280;5776;51.814;4.510;2022-12-29T15:36:29;100480.28;;;9.56;100.00
11440;BME280;5776;51.814;4.510;2022-12-29T15:39:20;100477.56;;;9.56;100.00